Terminal Aerodrome Forecast
Issued by NWS Paducah, KY

Home | Current Version | Previous Version | Text Only | Print | Product List | Glossary On
Versions: 1 2 3 4 5 6 7 8 9 10 11 12 13 14 15 16 17 18 19 20 21 22
000
FTUS43 KPAH 162228 AAB
TAFPAH
TAF AMD
KPAH 162228Z 1622/1718 01010KT P6SM BKN025
      TEMPO 1622/1624 SCT025
     FM170000 04006KT P6SM BKN100
     FM171300 10005KT 5SM -RA BR OVC015
     FM171500 12005KT 3SM -RA BR OVC008=

USA.gov is the U.S. government's official web portal to all federal, state and local government web resources and services.